sensor_id;sensor_type;location;lat;lon;timestamp;pressure;altitude;pressure_sealevel;temperature;humidity
64616;BME280;51027;42.162;24.754;2023-02-17T00:01:49;100769.91;;;2.58;71.42
64616;BME280;51027;42.162;24.754;2023-02-17T00:04:14;100769.81;;;2.51;71.74
64616;BME280;51027;42.162;24.754;2023-02-17T00:06:39;100760.09;;;2.35;72.11
64616;BME280;51027;42.162;24.754;2023-02-17T00:09:05;100763.50;;;2.27;72.16
64616;BME280;51027;42.162;24.754;2023-02-17T00:11:32;100758.97;;;2.14;72.76
64616;BME280;51027;42.162;24.754;2023-02-17T00:13:58;100760.81;;;2.23;72.71
64616;BME280;51027;42.162;24.754;2023-02-17T00:16:26;100754.72;;;2.18;72.51
64616;BME280;51027;42.162;24.754;2023-02-17T00:18:54;100748.66;;;2.19;72.57
64616;BME280;51027;42.162;24.754;2023-02-17T00:21:23;100754.75;;;2.21;72.39
64616;BME280;51027;42.162;24.754;2023-02-17T00:23:48;100753.03;;;2.23;72.30
64616;BME280;51027;42.162;24.754;2023-02-17T00:26:14;100751.25;;;2.19;72.49
64616;BME280;51027;42.162;24.754;2023-02-17T00:28:41;100748.91;;;1.70;73.90
64616;BME280;51027;42.162;24.754;2023-02-17T00:31:08;100751.53;;;1.72;74.25
64616;BME280;51027;42.162;24.754;2023-02-17T00:33:34;100742.44;;;2.05;73.40
64616;BME280;51027;42.162;24.754;2023-02-17T00:36:07;100745.03;;;2.05;72.77
64616;BME280;51027;42.162;24.754;2023-02-17T00:38:33;100739.88;;;2.09;72.49
64616;BME280;51027;42.162;24.754;2023-02-17T00:44:51;100727.97;;;2.28;71.54
64616;BME280;51027;42.162;24.754;2023-02-17T00:47:16;100705.16;;;2.02;71.99
64616;BME280;51027;42.162;24.754;2023-02-17T00:49:42;100721.66;;;2.05;72.59
64616;BME280;51027;42.162;24.754;2023-02-17T00:52:07;100721.72;;;2.11;72.54
64616;BME280;51027;42.162;24.754;2023-02-17T00:54:33;100698.22;;;2.00;72.57
64616;BME280;51027;42.162;24.754;2023-02-17T00:56:58;100711.91;;;1.85;73.31
64616;BME280;51027;42.162;24.754;2023-02-17T00:59:23;100716.41;;;2.01;73.45
64616;BME280;51027;42.162;24.754;2023-02-17T01:01:49;100710.56;;;2.22;72.32
64616;BME280;51027;42.162;24.754;2023-02-17T01:04:14;100707.19;;;2.28;72.12
64616;BME280;51027;42.162;24.754;2023-02-17T01:06:41;100702.72;;;2.15;72.42
64616;BME280;51027;42.162;24.754;2023-02-17T01:09:07;100687.09;;;2.13;72.38
64616;BME280;51027;42.162;24.754;2023-02-17T01:11:35;100701.91;;;2.22;71.98
64616;BME280;51027;42.162;24.754;2023-02-17T01:14:01;100696.66;;;2.16;72.25
64616;BME280;51027;42.162;24.754;2023-02-17T01:16:31;100696.50;;;2.03;72.49
64616;BME280;51027;42.162;24.754;2023-02-17T01:19:01;100681.50;;;1.80;72.63
64616;BME280;51027;42.162;24.754;2023-02-17T01:21:28;100696.19;;;1.75;73.06
64616;BME280;51027;42.162;24.754;2023-02-17T01:23:57;100668.25;;;1.58;72.99
64616;BME280;51027;42.162;24.754;2023-02-17T01:26:25;100691.53;;;1.52;73.67
64616;BME280;51027;42.162;24.754;2023-02-17T01:28:51;100694.94;;;1.47;73.65
64616;BME280;51027;42.162;24.754;2023-02-17T01:31:18;100650.81;;;1.47;73.00
64616;BME280;51027;42.162;24.754;2023-02-17T01:33:44;100654.38;;;1.55;72.78
64616;BME280;51027;42.162;24.754;2023-02-17T01:36:11;100673.25;;;1.43;73.04
64616;BME280;51027;42.162;24.754;2023-02-17T01:38:37;100684.44;;;1.37;73.25
64616;BME280;51027;42.162;24.754;2023-02-17T01:41:03;100675.09;;;1.52;72.93
64616;BME280;51027;42.162;24.754;2023-02-17T01:43:29;100666.28;;;1.40;73.31
64616;BME280;51027;42.162;24.754;2023-02-17T01:45:56;100665.41;;;1.38;73.80
64616;BME280;51027;42.162;24.754;2023-02-17T01:51:10;100660.94;;;1.28;73.86
64616;BME280;51027;42.162;24.754;2023-02-17T01:53:46;100659.22;;;1.30;73.88
64616;BME280;51027;42.162;24.754;2023-02-17T01:56:15;100639.13;;;1.14;73.86
64616;BME280;51027;42.162;24.754;2023-02-17T01:58:45;100662.66;;;1.26;73.97
64616;BME280;51027;42.162;24.754;2023-02-17T02:01:11;100653.25;;;1.34;74.10
64616;BME280;51027;42.162;24.754;2023-02-17T02:03:37;100658.50;;;1.39;74.13
64616;BME280;51027;42.162;24.754;2023-02-17T02:06:08;100648.88;;;1.32;74.13
64616;BME280;51027;42.162;24.754;2023-02-17T02:11:16;100641.50;;;0.99;75.34
64616;BME280;51027;42.162;24.754;2023-02-17T02:13:41;100656.63;;;1.29;74.60
64616;BME280;51027;42.162;24.754;2023-02-17T02:16:24;100647.53;;;0.99;75.08
64616;BME280;51027;42.162;24.754;2023-02-17T02:19:03;100641.59;;;1.05;75.50
64616;BME280;51027;42.162;24.754;2023-02-17T02:21:57;100645.22;;;1.16;75.21
64616;BME280;51027;42.162;24.754;2023-02-17T02:30:44;100636.47;;;1.09;76.41
64616;BME280;51027;42.162;24.754;2023-02-17T02:33:43;100648.69;;;1.18;75.73
64616;BME280;51027;42.162;24.754;2023-02-17T02:36:17;100650.44;;;1.21;75.69
64616;BME280;51027;42.162;24.754;2023-02-17T02:38:57;100647.69;;;1.08;75.95
64616;BME280;51027;42.162;24.754;2023-02-17T02:41:31;100611.78;;;0.78;76.03
64616;BME280;51027;42.162;24.754;2023-02-17T02:43:58;100607.56;;;0.83;75.25
64616;BME280;51027;42.162;24.754;2023-02-17T02:46:23;100631.84;;;0.90;75.51
64616;BME280;51027;42.162;24.754;2023-02-17T02:48:50;100658.22;;;0.62;76.84
64616;BME280;51027;42.162;24.754;2023-02-17T02:53:55;100658.31;;;0.69;76.73
64616;BME280;51027;42.162;24.754;2023-02-17T02:59:55;100650.22;;;0.51;77.63
64616;BME280;51027;42.162;24.754;2023-02-17T03:05:10;100645.34;;;0.69;76.80
64616;BME280;51027;42.162;24.754;2023-02-17T03:07:49;100644.56;;;0.72;76.96
64616;BME280;51027;42.162;24.754;2023-02-17T03:10:19;100639.25;;;0.64;77.54
64616;BME280;51027;42.162;24.754;2023-02-17T03:12:44;100628.38;;;0.88;76.77
64616;BME280;51027;42.162;24.754;2023-02-17T03:15:18;100637.69;;;0.77;76.86
64616;BME280;51027;42.162;24.754;2023-02-17T03:17:46;100642.34;;;0.98;76.09
64616;BME280;51027;42.162;24.754;2023-02-17T03:20:12;100644.00;;;0.93;76.27
64616;BME280;51027;42.162;24.754;2023-02-17T03:22:40;100638.00;;;0.97;76.06
64616;BME280;51027;42.162;24.754;2023-02-17T03:25:08;100637.25;;;1.02;76.01
64616;BME280;51027;42.162;24.754;2023-02-17T03:27:33;100635.47;;;1.01;75.79
64616;BME280;51027;42.162;24.754;2023-02-17T03:29:59;100616.91;;;0.72;76.35
64616;BME280;51027;42.162;24.754;2023-02-17T03:32:24;100616.13;;;0.78;76.20
64616;BME280;51027;42.162;24.754;2023-02-17T03:34:50;100644.81;;;0.90;75.65
64616;BME280;51027;42.162;24.754;2023-02-17T03:37:15;100647.78;;;0.58;76.62
64616;BME280;51027;42.162;24.754;2023-02-17T03:39:41;100653.97;;;0.68;76.14
64616;BME280;51027;42.162;24.754;2023-02-17T03:42:06;100623.94;;;0.28;76.98
64616;BME280;51027;42.162;24.754;2023-02-17T03:44:32;100657.41;;;0.66;76.57
64616;BME280;51027;42.162;24.754;2023-02-17T03:46:57;100659.09;;;0.64;76.72
64616;BME280;51027;42.162;24.754;2023-02-17T03:49:23;100651.34;;;0.65;76.57
64616;BME280;51027;42.162;24.754;2023-02-17T03:51:48;100649.50;;;0.60;77.06
64616;BME280;51027;42.162;24.754;2023-02-17T03:54:14;100651.31;;;0.64;77.52
64616;BME280;51027;42.162;24.754;2023-02-17T03:56:39;100655.56;;;0.10;79.33
64616;BME280;51027;42.162;24.754;2023-02-17T03:59:04;100622.16;;;0.24;79.01
64616;BME280;51027;42.162;24.754;2023-02-17T04:01:30;100654.31;;;0.37;79.06
64616;BME280;51027;42.162;24.754;2023-02-17T04:03:55;100650.81;;;0.33;78.98
64616;BME280;51027;42.162;24.754;2023-02-17T04:06:21;100645.28;;;0.15;79.96
64616;BME280;51027;42.162;24.754;2023-02-17T04:08:46;100638.41;;;0.17;79.96
64616;BME280;51027;42.162;24.754;2023-02-17T04:11:12;100633.50;;;-0.16;82.41
64616;BME280;51027;42.162;24.754;2023-02-17T04:13:38;100626.50;;;0.26;80.38
64616;BME280;51027;42.162;24.754;2023-02-17T04:16:06;100646.53;;;0.37;79.89
64616;BME280;51027;42.162;24.754;2023-02-17T04:18:33;100654.28;;;0.35;80.06
64616;BME280;51027;42.162;24.754;2023-02-17T04:20:59;100651.34;;;0.15;79.69
64616;BME280;51027;42.162;24.754;2023-02-17T04:23:25;100624.75;;;-0.21;79.44
64616;BME280;51027;42.162;24.754;2023-02-17T04:25:50;100640.78;;;0.05;78.57
64616;BME280;51027;42.162;24.754;2023-02-17T04:28:16;100640.47;;;-0.12;79.16
64616;BME280;51027;42.162;24.754;2023-02-17T04:30:47;100645.72;;;-0.09;78.68
64616;BME280;51027;42.162;24.754;2023-02-17T04:33:13;100648.78;;;-0.28;78.78
64616;BME280;51027;42.162;24.754;2023-02-17T04:35:38;100647.34;;;-0.13;78.56
64616;BME280;51027;42.162;24.754;2023-02-17T04:38:05;100660.31;;;-0.13;78.65
64616;BME280;51027;42.162;24.754;2023-02-17T04:40:30;100633.19;;;-0.32;78.82
64616;BME280;51027;42.162;24.754;2023-02-17T04:42:55;100635.19;;;-0.18;78.92
64616;BME280;51027;42.162;24.754;2023-02-17T04:45:21;100615.25;;;-0.22;78.50
64616;BME280;51027;42.162;24.754;2023-02-17T04:47:47;100635.41;;;-0.06;78.34
64616;BME280;51027;42.162;24.754;2023-02-17T04:50:12;100607.66;;;-0.13;77.87
64616;BME280;51027;42.162;24.754;2023-02-17T04:52:38;100624.34;;;0.01;77.94
64616;BME280;51027;42.162;24.754;2023-02-17T04:55:04;100632.38;;;0.16;77.01
64616;BME280;51027;42.162;24.754;2023-02-17T04:57:30;100628.66;;;0.02;77.29
64616;BME280;51027;42.162;24.754;2023-02-17T04:59:55;100633.09;;;0.09;77.04
64616;BME280;51027;42.162;24.754;2023-02-17T05:02:21;100627.13;;;0.13;76.75
64616;BME280;51027;42.162;24.754;2023-02-17T05:04:46;100638.34;;;0.12;76.87
64616;BME280;51027;42.162;24.754;2023-02-17T05:07:12;100634.09;;;0.16;77.15
64616;BME280;51027;42.162;24.754;2023-02-17T05:09:38;100616.94;;;0.21;77.09
64616;BME280;51027;42.162;24.754;2023-02-17T05:12:03;100630.94;;;0.32;76.98
64616;BME280;51027;42.162;24.754;2023-02-17T05:14:30;100632.59;;;0.30;77.34
64616;BME280;51027;42.162;24.754;2023-02-17T05:16:56;100614.34;;;0.22;77.79
64616;BME280;51027;42.162;24.754;2023-02-17T05:19:21;100626.72;;;0.40;77.66
64616;BME280;51027;42.162;24.754;2023-02-17T05:21:46;100559.72;;;0.10;77.01
64616;BME280;51027;42.162;24.754;2023-02-17T05:24:12;100623.66;;;0.63;76.27
64616;BME280;51027;42.162;24.754;2023-02-17T05:26:37;100626.91;;;0.51;75.74
64616;BME280;51027;42.162;24.754;2023-02-17T05:29:03;100631.13;;;0.43;75.61
64616;BME280;51027;42.162;24.754;2023-02-17T05:31:28;100632.03;;;0.48;75.53
64616;BME280;51027;42.162;24.754;2023-02-17T05:33:54;100637.28;;;0.51;75.61
64616;BME280;51027;42.162;24.754;2023-02-17T05:36:19;100636.91;;;0.29;76.30
64616;BME280;51027;42.162;24.754;2023-02-17T05:38:44;100642.28;;;0.40;75.97
64616;BME280;51027;42.162;24.754;2023-02-17T05:41:14;100639.56;;;0.31;75.89
64616;BME280;51027;42.162;24.754;2023-02-17T05:43:39;100642.44;;;0.51;75.37
64616;BME280;51027;42.162;24.754;2023-02-17T05:46:05;100640.59;;;0.42;75.11
64616;BME280;51027;42.162;24.754;2023-02-17T05:48:30;100643.56;;;0.64;74.83
64616;BME280;51027;42.162;24.754;2023-02-17T05:50:56;100645.53;;;0.81;73.82
64616;BME280;51027;42.162;24.754;2023-02-17T05:53:21;100653.41;;;0.86;73.98
64616;BME280;51027;42.162;24.754;2023-02-17T05:55:47;100623.63;;;0.61;74.76
64616;BME280;51027;42.162;24.754;2023-02-17T05:58:12;100645.78;;;0.95;74.79
64616;BME280;51027;42.162;24.754;2023-02-17T06:00:37;100628.66;;;1.08;74.65
64616;BME280;51027;42.162;24.754;2023-02-17T06:03:03;100624.34;;;1.10;74.80
64616;BME280;51027;42.162;24.754;2023-02-17T06:05:28;100649.84;;;1.40;74.34
64616;BME280;51027;42.162;24.754;2023-02-17T06:07:54;100659.50;;;1.52;73.83
64616;BME280;51027;42.162;24.754;2023-02-17T06:10:19;100656.03;;;1.50;73.91
64616;BME280;51027;42.162;24.754;2023-02-17T06:12:45;100661.38;;;1.60;74.02
64616;BME280;51027;42.162;24.754;2023-02-17T06:15:10;100654.13;;;1.35;75.17
64616;BME280;51027;42.162;24.754;2023-02-17T06:17:36;100651.16;;;1.74;73.78
64616;BME280;51027;42.162;24.754;2023-02-17T06:20:03;100658.25;;;1.87;73.10
64616;BME280;51027;42.162;24.754;2023-02-17T06:22:28;100659.97;;;1.87;73.58
64616;BME280;51027;42.162;24.754;2023-02-17T06:24:54;100670.88;;;1.60;74.69
64616;BME280;51027;42.162;24.754;2023-02-17T06:27:19;100620.56;;;1.52;73.70
64616;BME280;51027;42.162;24.754;2023-02-17T06:29:45;100655.97;;;2.16;72.40
64616;BME280;51027;42.162;24.754;2023-02-17T06:32:10;100670.69;;;2.17;71.70
64616;BME280;51027;42.162;24.754;2023-02-17T06:34:36;100675.34;;;2.49;71.47
64616;BME280;51027;42.162;24.754;2023-02-17T06:37:01;100675.06;;;2.23;71.44
64616;BME280;51027;42.162;24.754;2023-02-17T06:39:26;100664.44;;;2.00;72.90
64616;BME280;51027;42.162;24.754;2023-02-17T06:41:52;100668.91;;;3.12;69.91
64616;BME280;51027;42.162;24.754;2023-02-17T06:44:17;100669.19;;;3.67;67.84
64616;BME280;51027;42.162;24.754;2023-02-17T06:46:42;100677.25;;;4.29;65.50
64616;BME280;51027;42.162;24.754;2023-02-17T06:49:10;100666.75;;;4.14;64.79
64616;BME280;51027;42.162;24.754;2023-02-17T06:51:36;100675.22;;;3.52;66.88
64616;BME280;51027;42.162;24.754;2023-02-17T06:54:02;100667.34;;;3.43;67.37
64616;BME280;51027;42.162;24.754;2023-02-17T06:56:28;100672.66;;;3.67;66.72
64616;BME280;51027;42.162;24.754;2023-02-17T06:58:53;100670.31;;;4.44;64.54
64616;BME280;51027;42.162;24.754;2023-02-17T07:01:21;100678.16;;;4.71;63.06
64616;BME280;51027;42.162;24.754;2023-02-17T07:03:46;100680.72;;;4.38;63.73
64616;BME280;51027;42.162;24.754;2023-02-17T07:06:12;100673.75;;;4.35;63.73
64616;BME280;51027;42.162;24.754;2023-02-17T07:08:38;100658.16;;;4.72;62.96
64616;BME280;51027;42.162;24.754;2023-02-17T07:11:08;100667.72;;;4.94;62.18
64616;BME280;51027;42.162;24.754;2023-02-17T07:13:34;100670.31;;;4.57;63.39
64616;BME280;51027;42.162;24.754;2023-02-17T07:15:59;100673.81;;;4.84;62.67
64616;BME280;51027;42.162;24.754;2023-02-17T07:18:25;100668.53;;;5.25;61.48
64616;BME280;51027;42.162;24.754;2023-02-17T07:20:50;100639.59;;;5.82;59.60
64616;BME280;51027;42.162;24.754;2023-02-17T07:23:16;100665.44;;;6.46;57.70
64616;BME280;51027;42.162;24.754;2023-02-17T07:25:42;100656.50;;;6.76;56.29
64616;BME280;51027;42.162;24.754;2023-02-17T07:28:07;100652.91;;;6.84;55.74
64616;BME280;51027;42.162;24.754;2023-02-17T07:30:40;100651.25;;;6.76;55.99
64616;BME280;51027;42.162;24.754;2023-02-17T07:33:06;100673.25;;;6.50;57.43
64616;BME280;51027;42.162;24.754;2023-02-17T07:35:33;100669.88;;;6.31;58.66
64616;BME280;51027;42.162;24.754;2023-02-17T07:37:59;100630.22;;;6.86;56.65
64616;BME280;51027;42.162;24.754;2023-02-17T07:40:25;100662.03;;;7.37;55.72
64616;BME280;51027;42.162;24.754;2023-02-17T07:42:51;100673.84;;;6.84;56.46
64616;BME280;51027;42.162;24.754;2023-02-17T07:45:17;100662.81;;;6.46;57.69
64616;BME280;51027;42.162;24.754;2023-02-17T07:47:43;100640.00;;;6.64;56.43
64616;BME280;51027;42.162;24.754;2023-02-17T07:50:09;100657.84;;;7.93;54.00
64616;BME280;51027;42.162;24.754;2023-02-17T07:52:34;100646.56;;;9.05;50.80
64616;BME280;51027;42.162;24.754;2023-02-17T07:55:00;100672.91;;;9.01;50.21
64616;BME280;51027;42.162;24.754;2023-02-17T07:57:25;100674.00;;;7.60;54.50
64616;BME280;51027;42.162;24.754;2023-02-17T07:59:51;100657.59;;;7.42;55.22
64616;BME280;51027;42.162;24.754;2023-02-17T08:02:17;100657.78;;;9.13;51.17
64616;BME280;51027;42.162;24.754;2023-02-17T08:04:42;100622.19;;;9.43;49.38
64616;BME280;51027;42.162;24.754;2023-02-17T08:07:08;100661.13;;;9.68;48.94
64616;BME280;51027;42.162;24.754;2023-02-17T08:09:34;100661.28;;;9.60;48.89
64616;BME280;51027;42.162;24.754;2023-02-17T08:12:19;100661.53;;;9.48;49.64
64616;BME280;51027;42.162;24.754;2023-02-17T08:15:04;100673.41;;;10.88;46.61
64616;BME280;51027;42.162;24.754;2023-02-17T08:17:31;100651.06;;;11.68;44.03
64616;BME280;51027;42.162;24.754;2023-02-17T08:19:57;100669.63;;;11.65;44.46
64616;BME280;51027;42.162;24.754;2023-02-17T08:22:22;100671.91;;;11.46;44.83
64616;BME280;51027;42.162;24.754;2023-02-17T08:24:48;100656.63;;;12.19;43.25
64616;BME280;51027;42.162;24.754;2023-02-17T08:27:15;100668.66;;;13.37;41.00
64616;BME280;51027;42.162;24.754;2023-02-17T08:29:41;100650.72;;;13.93;38.50
64616;BME280;51027;42.162;24.754;2023-02-17T08:32:07;100662.19;;;14.62;37.76
64616;BME280;51027;42.162;24.754;2023-02-17T08:34:32;100664.16;;;14.34;37.86
64616;BME280;51027;42.162;24.754;2023-02-17T08:37:02;100660.84;;;13.82;39.09
64616;BME280;51027;42.162;24.754;2023-02-17T08:39:28;100656.69;;;15.50;36.10
64616;BME280;51027;42.162;24.754;2023-02-17T08:41:54;100667.19;;;15.53;35.95
64616;BME280;51027;42.162;24.754;2023-02-17T08:44:19;100672.09;;;14.12;37.99
64616;BME280;51027;42.162;24.754;2023-02-17T08:46:47;100643.88;;;12.88;40.47
64616;BME280;51027;42.162;24.754;2023-02-17T08:49:17;100660.53;;;14.82;38.25
64616;BME280;51027;42.162;24.754;2023-02-17T08:51:43;100655.69;;;17.03;33.97
64616;BME280;51027;42.162;24.754;2023-02-17T08:54:09;100652.44;;;16.98;33.73
64616;BME280;51027;42.162;24.754;2023-02-17T08:56:36;100645.38;;;17.49;32.63
64616;BME280;51027;42.162;24.754;2023-02-17T08:59:03;100657.81;;;17.99;31.85
64616;BME280;51027;42.162;24.754;2023-02-17T09:01:29;100661.84;;;18.06;31.86
64616;BME280;51027;42.162;24.754;2023-02-17T09:03:56;100650.50;;;19.85;29.05
64616;BME280;51027;42.162;24.754;2023-02-17T09:06:22;100650.50;;;20.41;28.57
64616;BME280;51027;42.162;24.754;2023-02-17T09:08:49;100642.53;;;20.12;28.62
64616;BME280;51027;42.162;24.754;2023-02-17T09:11:15;100643.22;;;19.59;29.76
64616;BME280;51027;42.162;24.754;2023-02-17T09:13:43;100635.97;;;18.08;31.20
64616;BME280;51027;42.162;24.754;2023-02-17T09:16:09;100644.06;;;17.56;31.93
64616;BME280;51027;42.162;24.754;2023-02-17T09:18:35;100635.56;;;17.15;33.09
64616;BME280;51027;42.162;24.754;2023-02-17T09:21:09;100629.59;;;17.62;32.26
64616;BME280;51027;42.162;24.754;2023-02-17T09:23:34;100626.19;;;17.75;31.99
64616;BME280;51027;42.162;24.754;2023-02-17T09:26:05;100636.63;;;19.79;29.68
64616;BME280;51027;42.162;24.754;2023-02-17T09:28:31;100620.19;;;19.99;28.66
64616;BME280;51027;42.162;24.754;2023-02-17T09:30:57;100612.06;;;19.44;29.32
64616;BME280;51027;42.162;24.754;2023-02-17T09:33:22;100611.53;;;20.37;28.23
64616;BME280;51027;42.162;24.754;2023-02-17T09:35:47;100607.91;;;20.38;28.15
64616;BME280;51027;42.162;24.754;2023-02-17T09:38:14;100610.91;;;23.34;24.85
64616;BME280;51027;42.162;24.754;2023-02-17T09:40:45;100572.38;;;19.80;28.37
64616;BME280;51027;42.162;24.754;2023-02-17T09:43:24;100609.19;;;21.77;24.84
64616;BME280;51027;42.162;24.754;2023-02-17T09:45:55;100584.88;;;20.35;24.32
64616;BME280;51027;42.162;24.754;2023-02-17T09:48:26;100578.19;;;21.47;23.03
64616;BME280;51027;42.162;24.754;2023-02-17T09:51:03;100597.75;;;21.22;22.22
64616;BME280;51027;42.162;24.754;2023-02-17T09:53:38;100602.66;;;22.30;20.93
64616;BME280;51027;42.162;24.754;2023-02-17T09:56:08;100591.16;;;22.28;21.54
64616;BME280;51027;42.162;24.754;2023-02-17T10:01:02;100581.81;;;25.04;18.81
64616;BME280;51027;42.162;24.754;2023-02-17T10:03:36;100572.06;;;25.85;17.82
64616;BME280;51027;42.162;24.754;2023-02-17T10:06:25;100573.06;;;23.93;19.70
64616;BME280;51027;42.162;24.754;2023-02-17T10:11:38;100550.91;;;25.90;18.35
64616;BME280;51027;42.162;24.754;2023-02-17T10:14:28;100561.34;;;22.44;20.90
64616;BME280;51027;42.162;24.754;2023-02-17T10:17:04;100557.66;;;23.50;20.63
64616;BME280;51027;42.162;24.754;2023-02-17T10:19:38;100537.50;;;21.79;21.35
64616;BME280;51027;42.162;24.754;2023-02-17T10:22:21;100549.56;;;22.34;21.52
64616;BME280;51027;42.162;24.754;2023-02-17T10:24:47;100537.09;;;23.38;20.12
64616;BME280;51027;42.162;24.754;2023-02-17T10:35:39;100558.50;;;23.51;19.69
64616;BME280;51027;42.162;24.754;2023-02-17T10:38:16;100549.38;;;23.07;19.78
64616;BME280;51027;42.162;24.754;2023-02-17T10:40:46;100536.16;;;23.62;19.26
64616;BME280;51027;42.162;24.754;2023-02-17T10:43:23;100518.53;;;24.87;19.03
64616;BME280;51027;42.162;24.754;2023-02-17T10:45:51;100526.47;;;27.37;16.85
64616;BME280;51027;42.162;24.754;2023-02-17T10:48:23;100520.44;;;26.28;17.39
64616;BME280;51027;42.162;24.754;2023-02-17T10:50:53;100488.78;;;25.40;18.14
64616;BME280;51027;42.162;24.754;2023-02-17T10:53:28;100505.41;;;24.73;18.80
64616;BME280;51027;42.162;24.754;2023-02-17T11:01:26;100483.38;;;25.10;18.10
64616;BME280;51027;42.162;24.754;2023-02-17T11:06:26;100489.50;;;30.09;14.84
64616;BME280;51027;42.162;24.754;2023-02-17T11:09:15;100482.16;;;29.51;14.87
64616;BME280;51027;42.162;24.754;2023-02-17T11:11:50;100481.06;;;29.10;14.60
64616;BME280;51027;42.162;24.754;2023-02-17T11:14:23;100480.28;;;27.01;15.73
64616;BME280;51027;42.162;24.754;2023-02-17T11:16:55;100457.34;;;22.70;18.71
64616;BME280;51027;42.162;24.754;2023-02-17T11:19:26;100474.25;;;22.00;20.19
64616;BME280;51027;42.162;24.754;2023-02-17T11:21:53;100471.69;;;22.58;20.09
64616;BME280;51027;42.162;24.754;2023-02-17T11:24:19;100470.34;;;20.93;21.30
64616;BME280;51027;42.162;24.754;2023-02-17T11:26:57;100454.91;;;20.46;20.74
64616;BME280;51027;42.162;24.754;2023-02-17T11:29:23;100434.94;;;21.88;19.82
64616;BME280;51027;42.162;24.754;2023-02-17T11:34:28;100430.06;;;25.63;16.18
64616;BME280;51027;42.162;24.754;2023-02-17T11:39:23;100435.97;;;27.21;14.66
64616;BME280;51027;42.162;24.754;2023-02-17T11:41:48;100438.97;;;24.30;16.61
64616;BME280;51027;42.162;24.754;2023-02-17T11:44:25;100436.13;;;23.68;16.84
64616;BME280;51027;42.162;24.754;2023-02-17T11:49:44;100413.53;;;24.55;15.22
64616;BME280;51027;42.162;24.754;2023-02-17T11:52:22;100441.66;;;24.83;14.91
64616;BME280;51027;42.162;24.754;2023-02-17T11:57:50;100441.09;;;22.71;16.49
64616;BME280;51027;42.162;24.754;2023-02-17T12:00:50;100435.94;;;21.98;17.64
64616;BME280;51027;42.162;24.754;2023-02-17T12:03:42;100429.88;;;22.31;18.06
64616;BME280;51027;42.162;24.754;2023-02-17T12:09:33;100431.34;;;21.64;18.13
64616;BME280;51027;42.162;24.754;2023-02-17T12:25:35;100348.78;;;24.36;16.47
64616;BME280;51027;42.162;24.754;2023-02-17T12:31:07;100382.38;;;26.51;13.86
64616;BME280;51027;42.162;24.754;2023-02-17T12:33:58;100396.03;;;26.96;13.04
64616;BME280;51027;42.162;24.754;2023-02-17T12:36:32;100396.84;;;24.92;13.85
64616;BME280;51027;42.162;24.754;2023-02-17T12:41:48;100377.97;;;26.96;13.55
64616;BME280;51027;42.162;24.754;2023-02-17T12:44:23;100383.63;;;29.67;12.53
64616;BME280;51027;42.162;24.754;2023-02-17T12:46:54;100377.53;;;26.54;14.12
64616;BME280;51027;42.162;24.754;2023-02-17T12:49:26;100374.63;;;24.27;15.33
64616;BME280;51027;42.162;24.754;2023-02-17T12:51:58;100388.97;;;24.49;15.61
64616;BME280;51027;42.162;24.754;2023-02-17T12:54:39;100381.03;;;25.39;15.20
64616;BME280;51027;42.162;24.754;2023-02-17T13:00:47;100373.91;;;20.29;17.39
64616;BME280;51027;42.162;24.754;2023-02-17T13:03:14;100374.28;;;20.50;17.06
64616;BME280;51027;42.162;24.754;2023-02-17T13:08:17;100383.16;;;27.17;13.48
64616;BME280;51027;42.162;24.754;2023-02-17T13:10:45;100391.75;;;27.86;13.19
64616;BME280;51027;42.162;24.754;2023-02-17T13:13:31;100393.53;;;27.77;12.81
64616;BME280;51027;42.162;24.754;2023-02-17T13:18:33;100397.94;;;28.13;12.84
64616;BME280;51027;42.162;24.754;2023-02-17T13:21:00;100391.38;;;27.80;13.13
64616;BME280;51027;42.162;24.754;2023-02-17T13:23:30;100390.91;;;26.46;14.36
64616;BME280;51027;42.162;24.754;2023-02-17T13:26:22;100391.25;;;28.69;12.88
64616;BME280;51027;42.162;24.754;2023-02-17T13:28:50;100361.78;;;26.30;14.23
64616;BME280;51027;42.162;24.754;2023-02-17T13:31:25;100396.81;;;26.88;14.17
64616;BME280;51027;42.162;24.754;2023-02-17T13:33:53;100377.72;;;30.53;12.28
64616;BME280;51027;42.162;24.754;2023-02-17T13:38:59;100383.56;;;29.09;12.96
64616;BME280;51027;42.162;24.754;2023-02-17T13:41:27;100382.63;;;28.92;12.96
64616;BME280;51027;42.162;24.754;2023-02-17T13:43:53;100385.50;;;28.90;13.38
64616;BME280;51027;42.162;24.754;2023-02-17T13:46:24;100396.94;;;29.02;13.23
64616;BME280;51027;42.162;24.754;2023-02-17T13:49:02;100383.81;;;30.63;12.12
64616;BME280;51027;42.162;24.754;2023-02-17T13:51:30;100391.53;;;30.35;11.93
64616;BME280;51027;42.162;24.754;2023-02-17T13:54:04;100383.47;;;28.05;13.53
64616;BME280;51027;42.162;24.754;2023-02-17T13:56:30;100384.25;;;27.52;13.80
64616;BME280;51027;42.162;24.754;2023-02-17T13:59:06;100394.41;;;27.22;13.87
64616;BME280;51027;42.162;24.754;2023-02-17T14:01:35;100392.34;;;25.82;14.96
64616;BME280;51027;42.162;24.754;2023-02-17T14:04:01;100380.56;;;23.35;17.24
64616;BME280;51027;42.162;24.754;2023-02-17T14:06:37;100377.50;;;22.14;18.46
64616;BME280;51027;42.162;24.754;2023-02-17T14:11:49;100383.16;;;20.63;20.60
64616;BME280;51027;42.162;24.754;2023-02-17T14:14:15;100386.75;;;22.68;19.22
64616;BME280;51027;42.162;24.754;2023-02-17T14:16:42;100369.91;;;21.84;19.58
64616;BME280;51027;42.162;24.754;2023-02-17T14:19:18;100373.19;;;23.59;18.71
64616;BME280;51027;42.162;24.754;2023-02-17T14:24:27;100367.72;;;24.76;17.72
64616;BME280;51027;42.162;24.754;2023-02-17T14:27:07;100366.53;;;24.06;18.53
64616;BME280;51027;42.162;24.754;2023-02-17T14:29:41;100356.38;;;24.52;18.00